Time;durP1;ratioP1;P1;durP2;ratioP2;P2;SDS_P1;SDS_P2;PMS_P1;PMS_P2;Temp;Humidity;BMP_temperature;BMP_pressure;BME280_temperature;BME280_humidity;BME280_pressure;Samples;Min_cycle;Max_cycle;Signal;HPM_P1;HPM_P2
2021/03/31 04:23:51;;;;;;;18.00;10.30;;;8.60;65.30;;;;;;6071818;23;20425;31
2021/03/31 04:48:58;;;;;;;11.00;9.80;;;8.60;65.50;;;;;;6078457;23;20425;-89
2021/03/31 04:51:31;;;;;;;9.67;8.67;;;11.20;76.60;;;;;;6141694;23;20453;-92
2021/03/31 04:59:21;;;;;;;13.73;10.10;;;8.70;65.50;;;;;;6077229;23;20403;-86
2021/03/31 05:24:56;;;;;;;11.67;9.30;;;8.60;69.30;;;;;;6081703;23;20724;-86
2021/03/31 05:32:33;;;;;;;14.07;9.07;;;8.90;73.20;;;;;;6090911;23;20437;-89
2021/03/31 05:37:30;;;;;;;15.83;10.33;;;8.70;72.50;;;;;;6082851;23;20179;-89
2021/03/31 05:39:55;;;;;;;18.03;10.80;;;8.70;74.80;;;;;;6067929;23;20842;-89
2021/03/31 05:42:21;;;;;;;12.87;10.23;;;8.80;75.00;;;;;;6066411;23;20214;-90
2021/03/31 05:44:48;;;;;;;11.97;9.30;;;8.70;74.60;;;;;;6090114;23;20155;-90
2021/03/31 05:47:24;;;;;;;12.27;9.90;;;8.00;73.70;;;;;;6064108;23;20670;-89
2021/03/31 05:49:50;;;;;;;11.00;9.83;;;8.80;70.20;;;;;;6064665;23;20480;-90
2021/03/31 05:52:16;;;;;;;11.43;9.50;;;8.90;73.70;;;;;;6066289;23;20433;-89
2021/03/31 05:54:41;;;;;;;11.50;10.20;;;8.80;73.70;;;;;;6067179;23;20414;-88
2021/03/31 05:57:08;;;;;;;12.67;11.40;;;9.00;77.00;;;;;;6065175;23;20159;-89
2021/03/31 05:59:36;;;;;;;12.10;10.07;;;8.00;73.50;;;;;;6066832;23;20158;-89
2021/03/31 06:02:04;;;;;;;12.97;8.90;;;10.20;75.40;;;;;;6066093;23;20483;-90
2021/03/31 06:04:30;;;;;;;12.43;9.47;;;9.30;73.60;;;;;;6066378;23;20445;-88
2021/03/31 06:06:57;;;;;;;12.50;8.93;;;9.50;72.80;;;;;;6064310;23;20387;-87
2021/03/31 06:09:23;;;;;;;14.53;9.13;;;9.90;70.40;;;;;;6068106;23;20182;-90
2021/03/31 06:11:55;;;;;;;9.97;8.63;;;10.30;65.40;;;;;;6068090;23;20701;-90
2021/03/31 06:14:28;;;;;;;34.47;10.60;;;;;;;;;;6068641;23;20166;-88
2021/03/31 06:17:02;;;;;;;10.40;9.23;;;11.60;85.70;;;;;;6064111;23;20386;-90
2021/03/31 06:19:29;;;;;;;14.80;9.93;;;;;;;;;;6064544;23;20430;-90
2021/03/31 06:22:04;;;;;;;11.73;8.80;;;12.70;55.00;;;;;;6064001;23;20367;-91
2021/03/31 06:24:32;;;;;;;11.00;8.40;;;13.30;53.90;;;;;;6086108;23;20486;-88
2021/03/31 06:26:58;;;;;;;11.83;10.33;;;13.80;53.10;;;;;;6065781;23;20406;-89
2021/03/31 06:29:35;;;;;;;10.00;8.53;;;15.30;53.40;;;;;;6066083;23;20403;-88
2021/03/31 06:32:19;;;;;;;10.90;9.57;;;16.10;51.30;;;;;;6065103;23;20135;-89
2021/03/31 06:34:56;;;;;;;10.57;9.50;;;16.10;49.90;;;;;;6065757;23;20397;-91
2021/03/31 06:37:24;;;;;;;15.13;9.70;;;18.20;49.90;;;;;;6063800;23;20430;-89
2021/03/31 06:39:51;;;;;;;28.03;13.97;;;16.40;47.80;;;;;;6066684;23;20475;-90
2021/03/31 06:42:23;;;;;;;9.93;8.93;;;17.00;46.30;;;;;;6088754;23;20513;-90
2021/03/31 06:47:26;;;;;;;9.20;8.47;;;17.20;43.70;;;;;;6078977;23;20687;-86
2021/03/31 06:49:53;;;;;;;10.33;9.30;;;19.10;43.70;;;;;;6067133;23;20384;-90
2021/03/31 06:52:18;;;;;;;12.00;9.07;;;19.10;43.00;;;;;;6067906;23;20367;-90
2021/03/31 06:54:48;;;;;;;10.93;9.20;;;18.80;42.80;;;;;;6067446;23;20413;-88
2021/03/31 06:57:26;;;;;;;11.50;9.03;;;19.20;41.30;;;;;;6067048;23;20154;-91
2021/03/31 07:00:09;;;;;;;8.80;8.00;;;19.50;41.10;;;;;;6067074;23;20441;-91
2021/03/31 07:02:36;;;;;;;12.90;10.27;;;19.40;39.90;;;;;;6067516;23;20418;-90
2021/03/31 07:05:03;;;;;;;15.17;9.00;;;;;;;;;;6090295;23;20441;-89
2021/03/31 07:10:28;;;;;;;14.10;8.90;;;21.10;35.90;;;;;;6063928;23;20444;-92
2021/03/31 07:12:55;;;;;;;16.73;9.27;;;;;;;;;;6057899;23;20384;-89
2021/03/31 07:15:24;;;;;;;10.30;9.10;;;22.50;49.00;;;;;;6057442;23;20376;-90
2021/03/31 07:25:36;;;;;;;16.53;10.27;;;22.90;36.60;;;;;;6168479;22;20527;-91
2021/03/31 07:28:05;;;;;;;10.30;9.30;;;23.20;36.30;;;;;;6105726;23;20450;-87
2021/03/31 07:38:26;;;;;;;14.40;10.37;;;;;;;;;;6111161;23;20442;-90
2021/03/31 07:40:55;;;;;;;17.70;10.83;;;24.40;38.60;;;;;;6100829;22;20450;-91
2021/03/31 07:46:09;;;;;;;13.33;10.00;;;25.00;38.10;;;;;;6076957;23;20419;-90
2021/03/31 08:01:32;;;;;;;13.00;10.90;;;25.20;38.80;;;;;;5036097;27;20563;-91
2021/03/31 08:03:58;;;;;;;10.97;9.20;;;26.40;34.90;;;;;;5015324;28;20490;-92
2021/03/31 08:06:29;;;;;;;10.77;9.03;;;26.60;34.30;;;;;;5012047;28;20427;-90
2021/03/31 08:09:19;;;;;;;10.80;9.20;;;;;;;;;;5114983;27;20180;-91
2021/03/31 08:11:49;;;;;;;21.20;8.60;;;27.40;30.20;;;;;;5038988;28;20958;-91
2021/03/31 08:14:26;;;;;;;8.23;7.57;;;27.60;30.60;;;;;;5028500;28;20406;-88
2021/03/31 08:16:57;;;;;;;8.63;7.77;;;28.90;30.60;;;;;;5112226;28;20430;-89
2021/03/31 08:19:34;;;;;;;8.57;6.63;;;28.90;29.00;;;;;;5026769;28;20592;-88
2021/03/31 08:22:33;;;;;;;;;;;;;;;;;;;;;
2021/03/31 08:25:13;;;;;;;9.87;7.80;;;29.80;41.80;;;;;;5047759;28;20441;-92
2021/03/31 08:28:07;;;;;;;7.27;6.63;;;29.70;41.00;;;;;;5134336;27;20459;-88
2021/03/31 08:30:37;;;;;;;8.30;6.90;;;;;;;;;;5045439;28;20512;-93
2021/03/31 08:33:03;;;;;;;6.97;6.47;;;30.20;26.10;;;;;;5116831;27;20446;-88
2021/03/31 08:35:29;;;;;;;10.00;7.40;;;30.70;30.40;;;;;;5027580;28;20423;-88
2021/03/31 08:37:56;;;;;;;10.47;7.73;;;;;;;;;;5026958;28;20411;-89
2021/03/31 08:40:22;;;;;;;7.43;6.80;;;;;;;;;;5026761;28;20488;-87
2021/03/31 08:42:50;;;;;;;7.63;6.70;;;32.10;35.00;;;;;;5114273;27;20472;-88
2021/03/31 08:45:31;;;;;;;7.07;6.50;;;32.50;34.40;;;;;;5027798;28;20468;-89
2021/03/31 08:47:58;;;;;;;8.67;7.37;;;32.50;34.10;;;;;;5028313;28;20414;-88
2021/03/31 08:50:33;;;;;;;7.97;7.17;;;33.00;33.80;;;;;;5027464;28;20427;-87
2021/03/31 08:55:40;;;;;;;7.67;6.90;;;32.30;32.40;;;;;;5237573;22;20501;-87
2021/03/31 08:58:16;;;;;;;9.03;8.10;;;33.10;32.70;;;;;;5108602;28;20460;-89
2021/03/31 09:00:50;;;;;;;8.20;7.40;;;32.10;32.40;;;;;;5102110;28;20569;-88
2021/03/31 09:03:16;;;;;;;7.93;7.17;;;32.40;33.20;;;;;;5089970;28;20436;-89
2021/03/31 09:05:57;;;;;;;9.00;8.10;;;33.10;33.50;;;;;;5091821;28;20415;-89
2021/03/31 09:08:24;;;;;;;17.50;8.20;;;32.50;31.80;;;;;;5072218;28;20227;-89
2021/03/31 09:10:52;;;;;;;9.10;8.17;;;31.80;32.90;;;;;;5069842;28;20502;-88
2021/03/31 09:13:28;;;;;;;9.73;8.47;;;31.30;34.00;;;;;;5077874;28;20497;-89
2021/03/31 09:15:59;;;;;;;8.23;7.40;;;32.80;34.30;;;;;;5076599;28;20399;-89
2021/03/31 09:18:25;;;;;;;9.00;7.47;;;32.10;35.00;;;;;;5077128;28;20424;-90
2021/03/31 09:20:51;;;;;;;9.37;8.60;;;32.60;27.90;;;;;;5058852;28;20936;-84
2021/03/31 09:23:25;;;;;;;9.43;8.43;;;33.30;28.00;;;;;;5075400;28;20445;-90
2021/03/31 09:25:56;;;;;;;9.30;8.50;;;33.60;24.80;;;;;;5058847;28;20173;-89
2021/03/31 09:28:22;;;;;;;8.80;8.10;;;32.90;23.30;;;;;;5077135;28;20413;-89
2021/03/31 09:30:54;;;;;;;8.80;7.90;;;32.50;23.70;;;;;;5076403;28;20521;-87
2021/03/31 09:33:35;;;;;;;10.30;9.10;;;32.40;22.20;;;;;;5077536;28;20167;-90
2021/03/31 09:36:13;;;;;;;9.40;8.70;;;32.00;23.40;;;;;;5078138;28;20900;-89
2021/03/31 09:38:39;;;;;;;8.47;7.87;;;32.00;23.50;;;;;;5071499;28;20421;-90
2021/03/31 09:41:07;;;;;;;8.40;7.80;;;32.90;22.80;;;;;;5054899;28;20428;-88
2021/03/31 09:43:34;;;;;;;8.20;7.50;;;32.60;22.30;;;;;;5042854;28;20420;-90
2021/03/31 09:46:00;;;;;;;8.37;7.50;;;33.30;22.30;;;;;;5076456;28;20493;-87
2021/03/31 09:48:25;;;;;;;8.43;7.73;;;33.30;22.10;;;;;;5077716;28;20994;-90
2021/03/31 09:50:52;;;;;;;6.93;6.37;;;33.60;21.80;;;;;;5059156;28;20237;-90
2021/03/31 09:53:22;;;;;;;10.07;7.20;;;33.80;22.30;;;;;;5059348;28;20166;-90
2021/03/31 09:55:48;;;;;;;7.10;6.50;;;34.70;25.50;;;;;;4373683;28;10000731;-89
2021/03/31 09:58:14;;;;;;;8.53;7.30;;;34.90;24.60;;;;;;5073441;28;20216;-89
2021/03/31 10:00:41;;;;;;;8.03;7.43;;;35.00;24.30;;;;;;5075752;28;20435;-91
2021/03/31 10:03:08;;;;;;;7.60;7.10;;;34.80;24.90;;;;;;5074952;28;20405;-89
2021/03/31 10:05:34;;;;;;;8.90;7.13;;;35.60;24.30;;;;;;5066886;28;20424;-86
2021/03/31 10:08:06;;;;;;;6.73;6.13;;;;;;;;;;5056958;28;21014;-89
2021/03/31 10:10:56;;;;;;;7.67;6.97;;;35.70;20.50;;;;;;5072931;28;20235;-88
2021/03/31 10:13:24;;;;;;;8.13;6.50;;;36.40;21.60;;;;;;5052676;28;20814;-89
2021/03/31 10:16:00;;;;;;;7.30;6.63;;;36.40;20.60;;;;;;5052278;28;20547;-89
2021/03/31 10:18:29;;;;;;;7.60;7.07;;;36.40;20.70;;;;;;5052147;28;20404;-87
2021/03/31 10:20:58;;;;;;;7.13;6.63;;;36.00;20.90;;;;;;5037116;28;20450;-87
2021/03/31 10:23:34;;;;;;;7.33;6.80;;;36.50;21.00;;;;;;5055108;28;20901;-90
2021/03/31 10:26:24;;;;;;;7.93;7.33;;;36.10;20.80;;;;;;5043634;28;20418;-90
2021/03/31 10:28:51;;;;;;;6.23;5.87;;;36.70;20.70;;;;;;5043818;28;20470;-91
2021/03/31 10:31:33;;;;;;;5.10;4.90;;;37.20;22.90;;;;;;5044068;28;20572;-89
2021/03/31 10:34:03;;;;;;;6.37;5.87;;;37.70;21.90;;;;;;5059830;28;20459;-90
2021/03/31 10:36:53;;;;;;;5.30;4.97;;;38.30;22.50;;;;;;5056845;28;20425;-93
2021/03/31 10:39:45;;;;;;;5.97;5.67;;;37.70;21.90;;;;;;5059590;28;20484;-91
2021/03/31 10:48:14;;;;;;;5.83;5.40;;;38.20;21.00;;;;;;5083597;28;20423;-90
2021/03/31 10:53:53;;;;;;;5.93;5.40;;;36.90;21.30;;;;;;5026371;28;20447;-87
2021/03/31 10:56:19;;;;;;;6.07;5.63;;;36.50;21.40;;;;;;5085891;28;20465;-90
2021/03/31 10:58:45;;;;;;;5.33;4.90;;;37.00;24.80;;;;;;5082955;28;20483;-91
2021/03/31 11:01:13;;;;;;;5.73;5.20;;;37.70;24.40;;;;;;5081698;28;20463;-91
2021/03/31 11:03:39;;;;;;;5.50;4.90;;;36.00;22.90;;;;;;5052999;28;20193;-92
2021/03/31 11:06:06;;;;;;;5.57;5.27;;;38.00;22.60;;;;;;5085569;28;20401;-91
2021/03/31 11:08:34;;;;;;;8.17;5.90;;;38.10;23.10;;;;;;5089423;28;20405;-91
2021/03/31 11:11:02;;;;;;;5.90;5.50;;;37.50;24.60;;;;;;5073949;28;20463;-91
2021/03/31 11:13:28;;;;;;;5.30;4.97;;;37.20;22.40;;;;;;5091155;28;20468;-90
2021/03/31 11:16:06;;;;;;;5.50;5.20;;;38.00;24.70;;;;;;5074577;28;20474;-88
2021/03/31 11:26:41;;;;;;;6.27;5.77;;;37.00;22.70;;;;;;5093907;28;20515;-91
2021/03/31 11:29:07;;;;;;;7.37;6.87;;;37.50;21.70;;;;;;5072919;28;20421;-92
2021/03/31 11:31:38;;;;;;;7.03;6.33;;;38.90;26.90;;;;;;5059055;28;20451;-93
2021/03/31 11:36:39;;;;;;;7.13;6.37;;;37.20;21.00;;;;;;3379376;22;20483;-91
2021/03/31 11:39:07;;;;;;;6.97;6.47;;;37.20;23.10;;;;;;5111847;23;20824;-90
2021/03/31 11:41:32;;;;;;;5.90;5.60;;;36.80;23.50;;;;;;5065270;28;20211;-90
2021/03/31 11:44:00;;;;;;;5.50;5.10;;;37.10;22.80;;;;;;5047968;28;20422;-90
2021/03/31 11:46:32;;;;;;;6.17;5.87;;;37.30;21.90;;;;;;5199960;22;20289;-92
2021/03/31 11:51:40;;;;;;;6.43;5.93;;;36.70;21.70;;;;;;2987972;22;20571;-90
2021/03/31 11:54:12;;;;;;;6.23;5.70;;;37.00;22.20;;;;;;5071146;28;20482;-92
2021/03/31 11:56:40;;;;;;;6.83;5.10;;;38.40;23.00;;;;;;5085652;28;20167;-92
2021/03/31 11:59:07;;;;;;;6.10;5.60;;;37.00;22.70;;;;;;5086709;28;20510;-92
2021/03/31 12:01:36;;;;;;;8.83;5.70;;;36.60;22.30;;;;;;5068416;28;20436;-90
2021/03/31 12:04:02;;;;;;;6.60;6.07;;;36.60;23.50;;;;;;5068978;28;20425;-91
2021/03/31 12:09:11;;;;;;;8.10;6.30;;;38.50;22.20;;;;;;4738964;26;20472;-90
2021/03/31 12:11:43;;;;;;;5.70;5.10;;;36.50;22.20;;;;;;5030839;28;20422;-88
2021/03/31 12:14:13;;;;;;;5.00;4.70;;;37.20;24.60;;;;;;5035876;28;20490;-90
2021/03/31 12:16:45;;;;;;;67.93;37.73;;;38.00;21.30;;;;;;5052067;28;20862;-90
2021/03/31 12:19:14;;;;;;;15.57;13.97;;;34.20;20.90;;;;;;5032637;28;20442;-90
2021/03/31 12:21:40;;;;;;;4.83;4.37;;;36.60;20.40;;;;;;5052546;28;20489;-92
2021/03/31 12:24:09;;;;;;;15.43;6.77;;;40.10;25.20;;;;;;5030505;28;20453;-93
2021/03/31 12:26:37;;;;;;;7.20;4.17;;;37.00;21.00;;;;;;5030489;28;20180;-92
2021/03/31 12:29:08;;;;;;;5.00;4.80;;;37.60;22.40;;;;;;5032003;28;20513;-92
2021/03/31 12:31:36;;;;;;;4.00;3.80;;;37.10;20.30;;;;;;5050942;28;20568;-88
2021/03/31 12:34:02;;;;;;;4.20;4.10;;;37.20;22.60;;;;;;5029364;28;20427;-87
2021/03/31 12:37:16;;;;;;;4.47;4.30;;;38.90;24.10;;;;;;5041804;28;20443;-91
2021/03/31 12:39:57;;;;;;;4.37;4.07;;;38.60;20.70;;;;;;5370170;23;20478;-89
2021/03/31 12:42:38;;;;;;;4.13;4.00;;;35.40;19.50;;;;;;5051011;28;20429;-91
2021/03/31 12:45:14;;;;;;;5.43;4.97;;;37.20;22.30;;;;;;5049483;28;20402;-93
2021/03/31 12:47:44;;;;;;;5.00;4.70;;;37.10;21.70;;;;;;5049803;28;20445;-91
2021/03/31 12:50:15;;;;;;;5.10;4.80;;;36.70;19.90;;;;;;5048156;28;20450;-90
2021/03/31 12:52:45;;;;;;;4.37;4.20;;;34.80;33.80;;;;;;5054100;28;20461;-93
2021/03/31 12:55:13;;;;;;;4.13;3.93;;;35.10;31.90;;;;;;5050219;28;20518;-88
2021/03/31 12:57:41;;;;;;;5.17;4.87;;;35.30;31.80;;;;;;5043744;28;20446;-90
2021/03/31 13:00:09;;;;;;;4.10;4.00;;;35.90;31.10;;;;;;5037236;28;20426;-92
2021/03/31 13:02:35;;;;;;;5.20;4.30;;;36.80;29.50;;;;;;5033594;28;20443;-92
2021/03/31 13:05:03;;;;;;;3.90;3.73;;;35.60;28.60;;;;;;5029834;28;20422;-89
2021/03/31 13:07:31;;;;;;;5.60;4.20;;;35.70;28.80;;;;;;5027244;28;20165;-90
2021/03/31 13:09:56;;;;;;;4.87;4.47;;;35.90;28.90;;;;;;5026212;28;20467;-92
2021/03/31 13:12:37;;;;;;;5.83;4.90;;;36.30;28.70;;;;;;5042949;28;20891;-91
2021/03/31 13:15:22;;;;;;;3.80;3.70;;;37.70;28.30;;;;;;5029188;28;20172;-89
2021/03/31 13:23:47;;;;;;;4.77;4.50;;;36.80;28.70;;;;;;5057539;28;20175;-90
2021/03/31 13:26:04;;;;;;;4.83;4.60;;;36.80;28.60;;;;;;5055330;28;20410;-90
2021/03/31 13:29:12;;;;;;;4.93;4.63;;;36.80;30.40;;;;;;5053187;28;20435;-88
2021/03/31 13:34:16;;;;;;;6.93;6.53;;;37.50;27.00;;;;;;5053732;28;20406;-90
2021/03/31 13:36:53;;;;;;;3.67;3.57;;;37.90;26.40;;;;;;5051821;28;20410;-91
2021/03/31 13:39:28;;;;;;;3.30;3.13;;;36.60;26.10;;;;;;5046914;28;20924;-92
2021/03/31 13:41:54;;;;;;;3.63;3.37;;;38.20;27.30;;;;;;5052001;28;20940;-91
2021/03/31 13:44:21;;;;;;;3.20;3.00;;;37.30;20.80;;;;;;5049277;28;20576;-91
2021/03/31 13:46:53;;;;;;;4.13;3.77;;;38.00;20.10;;;;;;5024488;28;20445;-90
2021/03/31 13:49:30;;;;;;;3.93;3.80;;;37.40;19.50;;;;;;5043350;28;20468;-88
2021/03/31 13:57:44;;;;;;;4.43;3.70;;;36.70;19.60;;;;;;5039939;28;20773;-91
2021/03/31 14:00:38;;;;;;;4.57;4.20;;;35.60;20.70;;;;;;5051501;28;20403;-93
2021/03/31 14:03:07;;;;;;;9.00;6.80;;;37.40;19.70;;;;;;5013970;28;20538;-94
2021/03/31 14:05:42;;;;;;;8.77;3.90;;;37.10;22.20;;;;;;5011381;28;20428;-91
2021/03/31 14:08:14;;;;;;;3.80;3.63;;;37.00;20.10;;;;;;5031931;28;20415;-91
2021/03/31 14:10:45;;;;;;;4.10;3.73;;;36.70;22.30;;;;;;5052887;28;20478;-92
2021/03/31 14:13:26;;;;;;;4.47;4.27;;;36.50;23.20;;;;;;5049961;28;20497;-91
2021/03/31 14:15:55;;;;;;;4.20;4.10;;;35.80;23.40;;;;;;5051108;28;20431;-91
2021/03/31 14:18:23;;;;;;;5.87;5.47;;;35.60;21.40;;;;;;5029895;28;20460;-92
2021/03/31 14:20:48;;;;;;;10.10;8.67;;;34.90;21.60;;;;;;5046687;28;20426;-90
2021/03/31 14:23:17;;;;;;;24.43;16.90;;;35.70;23.20;;;;;;5050853;28;20504;-91
2021/03/31 14:26:26;;;;;;;4.70;4.40;;;36.00;22.70;;;;;;5032491;28;20350;-90
2021/03/31 14:28:58;;;;;;;53.87;35.03;;;36.70;21.70;;;;;;4990144;28;20453;-93
2021/03/31 14:31:45;;;;;;;4.00;3.90;;;36.30;22.00;;;;;;5054376;28;20492;-91
2021/03/31 14:34:13;;;;;;;4.80;4.40;;;36.30;21.20;;;;;;5035607;28;20443;-90
2021/03/31 14:36:38;;;;;;;4.87;4.27;;;36.20;22.50;;;;;;5046643;28;20422;-93
2021/03/31 14:39:13;;;;;;;5.03;4.80;;;35.70;22.70;;;;;;5050449;28;20192;-92
2021/03/31 14:42:01;;;;;;;3.70;3.57;;;35.70;22.00;;;;;;5035790;28;20456;-89
2021/03/31 14:44:31;;;;;;;6.83;5.00;;;35.80;21.70;;;;;;5048717;28;20438;-93
2021/03/31 14:47:01;;;;;;;4.50;4.20;;;34.80;23.90;;;;;;5040934;28;20432;-92
2021/03/31 14:59:57;;;;;;;4.17;2.93;;;35.20;23.00;;;;;;5051339;28;20418;-92
2021/03/31 15:02:23;;;;;;;3.10;2.90;;;34.40;26.50;;;;;;5048728;28;20455;-90
2021/03/31 15:04:56;;;;;;;3.33;2.97;;;34.00;27.50;;;;;;5043902;28;20969;-91
2021/03/31 15:07:36;;;;;;;4.90;3.07;;;33.40;25.50;;;;;;5025379;28;20426;-90
2021/03/31 15:10:03;;;;;;;8.10;7.10;;;32.80;25.20;;;;;;5019222;28;20581;-87
2021/03/31 15:12:28;;;;;;;7.30;6.60;;;31.90;25.30;;;;;;5034839;28;20435;-88
2021/03/31 15:14:54;;;;;;;6.57;4.60;;;;;;;;;;5037466;28;20441;-88
2021/03/31 15:17:20;;;;;;;6.20;5.70;;;31.10;24.60;;;;;;5056917;28;20226;-90
2021/03/31 15:22:43;;;;;;;5.90;3.80;;;30.70;23.20;;;;;;5036014;28;20426;-87
2021/03/31 15:25:09;;;;;;;6.50;5.90;;;29.70;23.10;;;;;;5034124;28;20433;-88
2021/03/31 15:27:35;;;;;;;4.63;4.27;;;29.50;23.20;;;;;;5034456;28;20421;-89
2021/03/31 15:30:00;;;;;;;14.47;5.97;;;29.30;23.50;;;;;;5032877;28;20977;-88
2021/03/31 15:32:27;;;;;;;7.70;5.10;;;29.40;23.50;;;;;;5034268;28;20522;-86
2021/03/31 15:34:52;;;;;;;6.60;6.20;;;29.10;23.50;;;;;;5035738;28;20259;-88
2021/03/31 15:37:18;;;;;;;5.30;4.30;;;28.60;23.70;;;;;;5034526;28;20465;-91
2021/03/31 15:39:44;;;;;;;7.47;4.53;;;28.90;24.20;;;;;;5030978;28;20291;-88
2021/03/31 15:42:10;;;;;;;7.83;4.37;;;29.10;26.80;;;;;;5032984;28;20168;-89
2021/03/31 15:44:36;;;;;;;5.33;4.87;;;28.10;24.40;;;;;;5036066;28;20167;-90
2021/03/31 15:47:05;;;;;;;10.60;7.90;;;28.40;24.50;;;;;;5030440;28;20514;-87
2021/03/31 15:49:32;;;;;;;6.20;5.90;;;27.80;24.60;;;;;;5031788;28;20800;-90
2021/03/31 15:51:58;;;;;;;6.13;5.73;;;27.90;24.80;;;;;;5032383;28;20492;-91
2021/03/31 15:54:23;;;;;;;7.43;6.13;;;27.60;25.10;;;;;;5030843;28;20462;-90
2021/03/31 15:56:49;;;;;;;7.00;4.47;;;27.20;24.90;;;;;;5032794;28;20449;-88
2021/03/31 15:59:14;;;;;;;5.23;4.83;;;27.00;25.10;;;;;;5047194;28;20514;-90
2021/03/31 16:01:40;;;;;;;9.53;5.80;;;27.10;25.90;;;;;;5030959;28;20537;-90
2021/03/31 16:04:12;;;;;;;5.23;4.53;;;26.90;26.30;;;;;;5032497;28;20603;-88
2021/03/31 16:09:30;;;;;;;7.47;4.73;;;26.70;28.00;;;;;;5047181;28;20911;-89
2021/03/31 16:11:59;;;;;;;7.40;5.17;;;26.70;30.60;;;;;;5055080;28;20504;-91
2021/03/31 16:14:27;;;;;;;5.97;4.83;;;25.80;32.20;;;;;;5037674;28;21027;-90
2021/03/31 16:16:53;;;;;;;18.50;5.20;;;26.80;32.30;;;;;;5030551;28;20446;-89
2021/03/31 16:19:19;;;;;;;5.47;5.07;;;26.70;33.60;;;;;;5033039;28;20414;-91
2021/03/31 16:21:44;;;;;;;5.63;5.10;;;26.40;32.10;;;;;;5035232;28;20202;-88
2021/03/31 16:24:13;;;;;;;6.17;5.20;;;26.70;31.40;;;;;;5039231;28;20227;-91
2021/03/31 16:26:39;;;;;;;7.50;4.70;;;26.60;32.80;;;;;;5047391;28;20174;-90
2021/03/31 16:36:54;;;;;;;5.93;5.50;;;25.90;32.70;;;;;;5324867;23;20491;-90
2021/03/31 16:39:23;;;;;;;7.03;5.17;;;25.80;38.60;;;;;;5111464;28;20442;-92
2021/03/31 16:41:49;;;;;;;6.00;5.60;;;25.90;33.60;;;;;;5114707;28;20444;-91
2021/03/31 16:44:16;;;;;;;5.63;5.23;;;26.70;37.20;;;;;;5222488;22;20490;-89
2021/03/31 16:46:51;;;;;;;9.07;8.10;;;25.70;34.60;;;;;;5288257;22;20483;-91
2021/03/31 16:49:16;;;;;;;9.37;5.70;;;28.20;37.00;;;;;;5413376;22;20484;-92
2021/03/31 16:51:45;;;;;;;19.03;17.27;;;27.20;36.90;;;;;;5511364;22;20455;-89
2021/03/31 16:59:56;;;;;;;10.10;8.87;;;25.30;37.50;;;;;;5090875;22;20480;-89
2021/03/31 17:02:22;;;;;;;12.87;9.97;;;27.40;37.10;;;;;;5077034;28;20429;-89
2021/03/31 17:07:26;;;;;;;7.43;7.03;;;25.20;32.90;;;;;;5146149;22;20465;-90
2021/03/31 17:09:58;;;;;;;22.80;17.57;;;26.30;35.70;;;;;;5199786;22;20480;-89
2021/03/31 17:12:29;;;;;;;9.57;8.50;;;26.00;33.70;;;;;;5069479;28;20417;-91
2021/03/31 17:14:55;;;;;;;16.53;14.93;;;27.00;33.20;;;;;;5241775;22;20482;-90
2021/03/31 17:22:31;;;;;;;11.00;9.53;;;24.70;40.90;;;;;;5161272;22;20493;-92
2021/03/31 17:24:57;;;;;;;12.17;10.37;;;;;;;;;;5055178;28;20431;-91
2021/03/31 17:27:23;;;;;;;7.47;6.77;;;24.40;29.70;;;;;;5056502;28;20172;-88
2021/03/31 17:29:49;;;;;;;8.50;7.67;;;26.40;31.30;;;;;;5290137;22;21022;-92
2021/03/31 17:32:15;;;;;;;9.57;5.80;;;23.10;31.20;;;;;;5306953;22;20562;-90
2021/03/31 17:54:59;;;;;;;15.43;12.40;;;22.60;34.00;;;;;;5349335;22;20429;-90
2021/03/31 17:57:25;;;;;;;25.53;18.00;;;22.40;34.20;;;;;;5117643;22;20496;-90
2021/03/31 17:59:51;;;;;;;23.70;19.10;;;24.40;39.80;;;;;;5319538;22;20493;-90
2021/03/31 18:07:31;;;;;;;20.93;9.93;;;21.70;46.50;;;;;;6064005;22;20399;-90
2021/03/31 18:12:46;;;;;;;18.70;9.53;;;21.40;37.80;;;;;;5466140;22;20539;-92
2021/03/31 18:15:25;;;;;;;9.70;7.40;;;23.60;43.20;;;;;;5057294;28;20430;-91
2021/03/31 18:17:54;;;;;;;17.70;10.63;;;22.20;40.00;;;;;;5059626;28;20474;-89
2021/03/31 18:20:23;;;;;;;19.47;11.70;;;22.50;42.70;;;;;;5056479;28;20954;-91
2021/03/31 18:22:51;;;;;;;14.47;11.27;;;21.90;43.40;;;;;;5154685;22;20491;-92
2021/03/31 18:25:17;;;;;;;15.83;9.67;;;20.70;40.40;;;;;;5092932;28;20396;-91
2021/03/31 18:27:46;;;;;;;16.87;10.67;;;20.70;42.40;;;;;;5094103;28;20443;-92
2021/03/31 18:30:28;;;;;;;19.40;11.80;;;23.80;46.20;;;;;;5094319;28;20448;-93
2021/03/31 18:33:04;;;;;;;19.13;10.70;;;19.50;41.60;;;;;;5077435;28;20530;-90
2021/03/31 18:35:30;;;;;;;13.83;8.67;;;21.20;42.80;;;;;;5093651;28;20408;-90
2021/03/31 18:37:55;;;;;;;13.43;10.67;;;21.60;45.30;;;;;;5058538;28;20409;-89
2021/03/31 18:45:40;;;;;;;16.47;8.90;;;;;;;;;;5076417;28;20939;-92
2021/03/31 18:48:06;;;;;;;15.97;8.43;;;;;;;;;;5092714;28;20397;-91
2021/03/31 18:50:35;;;;;;;10.20;9.30;;;;;;;;;;5093774;28;20444;-92
2021/03/31 18:53:08;;;;;;;17.93;11.10;;;;;;;;;;5076998;28;20392;-92
2021/03/31 18:55:37;;;;;;;23.13;13.17;;;19.40;56.70;;;;;;5092673;28;20486;-93
2021/03/31 18:58:06;;;;;;;22.63;11.67;;;19.60;46.70;;;;;;5092875;28;20507;-93
2021/03/31 19:00:32;;;;;;;12.40;8.50;;;20.10;43.80;;;;;;5089921;28;20421;-92
2021/03/31 19:02:59;;;;;;;18.70;9.00;;;21.20;44.80;;;;;;5088738;28;20508;-90
2021/03/31 19:05:26;;;;;;;15.93;14.10;;;18.90;48.90;;;;;;5072970;28;20409;-92
2021/03/31 19:08:06;;;;;;;9.93;9.10;;;18.80;51.80;;;;;;5087942;28;20424;-92
2021/03/31 19:13:18;;;;;;;31.87;17.87;;;21.60;51.60;;;;;;5092744;28;20412;-92
2021/03/31 19:15:50;;;;;;;10.23;9.00;;;19.60;50.30;;;;;;5058076;28;20421;-92
2021/03/31 19:18:23;;;;;;;10.60;7.90;;;19.70;46.70;;;;;;5091840;28;20424;-92
2021/03/31 19:20:49;;;;;;;12.13;9.33;;;19.60;50.90;;;;;;5091550;28;20409;-93
2021/03/31 19:23:21;;;;;;;10.80;7.87;;;20.80;52.70;;;;;;5080857;28;20476;-90
2021/03/31 19:25:49;;;;;;;11.33;8.67;;;18.90;50.50;;;;;;5093006;28;20385;-93
2021/03/31 19:28:18;;;;;;;10.57;9.50;;;17.80;61.90;;;;;;5090173;28;20422;-91
2021/03/31 19:30:45;;;;;;;10.40;9.40;;;17.60;57.00;;;;;;5089282;28;20507;-92
2021/03/31 19:33:13;;;;;;;10.60;8.40;;;17.70;57.00;;;;;;5091208;28;20429;-92
2021/03/31 19:35:46;;;;;;;12.03;8.40;;;17.60;59.40;;;;;;5093177;28;20500;-93
2021/03/31 19:38:13;;;;;;;10.17;9.37;;;;;;;;;;5073528;28;20416;-91
2021/03/31 19:40:42;;;;;;;12.60;9.00;;;;;;;;;;5073058;28;20507;-92
2021/03/31 19:43:12;;;;;;;10.77;9.10;;;17.40;70.20;;;;;;5070486;28;20511;-91
2021/03/31 19:45:44;;;;;;;13.30;7.93;;;18.60;59.90;;;;;;5071523;28;20501;-91
2021/03/31 19:48:15;;;;;;;10.40;8.50;;;17.20;61.20;;;;;;5072228;28;20444;-92
2021/03/31 19:50:44;;;;;;;11.37;7.30;;;17.10;59.80;;;;;;5073638;28;20457;-93
2021/03/31 19:53:17;;;;;;;12.90;7.33;;;17.10;59.10;;;;;;5073312;28;20410;-92
2021/03/31 19:58:33;;;;;;;9.63;7.43;;;17.80;59.00;;;;;;5069864;28;20498;-93
2021/03/31 20:01:04;;;;;;;8.87;7.37;;;17.50;58.90;;;;;;5067346;28;20437;-93
2021/03/31 20:04:05;;;;;;;11.70;6.80;;;17.00;56.00;;;;;;5070665;28;20483;-94
2021/03/31 20:06:52;;;;;;;11.60;7.97;;;17.50;58.60;;;;;;5074243;28;20405;-91
2021/03/31 20:09:24;;;;;;;10.67;7.70;;;;;;;;;;5072592;28;20465;-92
2021/03/31 20:12:00;;;;;;;11.77;6.17;;;;;;;;;;5073938;28;20430;-92
2021/03/31 20:14:35;;;;;;;9.67;7.03;;;;;;;;;;5074084;28;20420;-92
2021/03/31 20:17:16;;;;;;;13.17;6.67;;;;;;;;;;5071909;28;20429;-91
2021/03/31 20:19:46;;;;;;;11.90;6.30;;;;;;;;;;5073360;28;20429;-93
2021/03/31 20:22:14;;;;;;;13.80;6.43;;;16.30;83.50;;;;;;5073213;28;20429;-90
2021/03/31 20:24:40;;;;;;;16.93;6.20;;;16.30;82.00;;;;;;5039160;28;20433;-91
2021/03/31 20:27:12;;;;;;;11.47;7.50;;;;;;;;;;5071936;28;20492;-92
2021/03/31 20:29:42;;;;;;;10.73;6.70;;;;;;;;;;5073010;28;20181;-92
2021/03/31 20:32:37;;;;;;;7.10;6.40;;;;;;;;;;5081130;28;20434;-91
2021/03/31 20:35:09;;;;;;;5.90;5.53;;;;;;;;;;5112816;28;20410;-92
2021/03/31 20:37:45;;;;;;;8.53;6.07;;;;;;;;;;5097195;28;20416;-92
2021/03/31 20:40:13;;;;;;;9.00;6.70;;;;;;;;;;5097992;28;20404;-91
2021/03/31 20:42:43;;;;;;;11.70;7.40;;;;;;;;;;5115332;28;20423;-92
2021/03/31 20:47:55;;;;;;;7.80;6.77;;;;;;;;;;5547865;22;20269;-92
2021/03/31 20:56:36;;;;;;;11.50;7.30;;;15.90;80.30;;;;;;5424882;22;20478;-90
2021/03/31 20:59:11;;;;;;;11.93;6.53;;;;;;;;;;5056647;28;20430;-92
2021/03/31 21:01:46;;;;;;;7.10;6.57;;;;;;;;;;5055832;28;20870;-93
2021/03/31 21:06:52;;;;;;;13.93;7.40;;;;;;;;;;5140872;22;20480;-93
2021/03/31 21:09:18;;;;;;;11.03;7.20;;;;;;;;;;5061606;28;20490;-93
2021/03/31 21:11:47;;;;;;;11.17;8.30;;;;;;;;;;5062232;28;20473;-94
2021/03/31 21:14:16;;;;;;;10.17;7.87;;;;;;;;;;5062061;28;20433;-94
2021/03/31 21:16:44;;;;;;;13.03;6.77;;;;;;;;;;5079492;28;20427;-91
2021/03/31 21:19:24;;;;;;;10.13;8.37;;;;;;;;;;5079773;28;20410;-91
2021/03/31 21:21:50;;;;;;;12.87;7.80;;;;;;;;;;5062601;28;20416;-90